gordon.dewis.ca - Random musings from Gordon

Subscribe

I want no part of this

April 14, 2014 @ 22:47 By: gordon Category: Weather

The forecast for tomorrow has no redeeming features:

TAF CYOW 150238Z 1503/1524 20010KT P6SM SCT020 OVC030 TEMPO 1503/1507 5SM -SHRA BR OVC020
BECMG 1504/1506 29010KT
FM150700 29010G20KT P6SM OVC012 TEMPO 1507/1510 4SM -SHRA BR OVC006
FM151000 31012KT 2SM -RA BR OVC006
FM151500 31015G25KT 3SM -FZRA -PL BR OVC010
FM151800 30012G22KT 2SM -PLSN OVC012
FM152100 30012G22KT 3/4SM -SN BLSN VV008
RMK NXT FCST BY 150600Z=

Basically, that says light rain showers overnight, gusty winds, rain and mist becoming freezing rain and pellets (yum!) around 9am, which will become snow pellets in the early afternoon and finally snow and blowing snow around 5pm tomorrow afternoon.

I want no part of this.

Trackbacks/Pingbacks

  1. gordon.dewis.ca | It’s been a while… (June 11, 2014 @ 16:29)

Leave a Reply

CAPTCHA
*